createdAt,value
2023-04-01T13:03:54.158Z,958.2634
2023-04-01T13:04:55.780Z,958.2531
2023-04-01T13:05:57.148Z,958.2169
2023-04-01T13:06:58.679Z,958.2438
2023-04-01T13:15:21.828Z,958.6133
2023-04-01T13:16:23.394Z,958.5862
2023-04-01T13:17:24.926Z,958.6077
2023-04-01T13:18:26.435Z,958.5854
2023-04-01T13:19:27.902Z,958.6116
2023-04-01T13:20:29.445Z,958.6339
2023-04-01T13:21:30.990Z,958.6323
2023-04-01T13:22:32.512Z,958.6185
2023-04-01T13:23:33.983Z,958.6208
2023-04-01T13:24:35.780Z,958.6230
2023-04-01T13:25:37.054Z,958.6323
2023-04-01T13:26:38.568Z,958.6054
2023-04-01T13:27:40.130Z,958.6085
2023-04-01T13:28:41.631Z,958.6608
2023-04-01T13:29:43.206Z,958.6754
2023-04-01T13:30:44.691Z,958.6461
2023-04-01T13:31:46.225Z,958.7377
2023-04-01T13:32:47.839Z,958.6815
2023-04-01T13:33:49.214Z,958.6985
2023-04-01T13:34:50.838Z,958.7123
2023-04-01T13:35:52.315Z,958.6823
2023-04-01T13:36:53.827Z,958.6661
2023-04-01T13:37:55.353Z,958.7100
2023-04-01T13:38:56.857Z,958.6415
2023-04-01T13:39:58.374Z,958.7477
2023-04-01T13:41:03.498Z,958.7684
2023-04-01T16:09:08.464Z,958.8400
2023-04-01T16:10:09.962Z,958.8246
2023-04-01T16:11:11.504Z,958.8246
2023-04-01T16:12:13.039Z,958.8369
2023-04-01T16:13:14.552Z,958.8315
2023-04-01T16:14:16.085Z,958.7977
2023-04-01T16:15:17.619Z,958.8108
2023-04-01T16:16:19.239Z,958.8192
2023-04-01T16:17:20.732Z,958.8208
2023-04-01T16:18:22.202Z,958.8223
2023-04-01T16:19:23.857Z,958.8254
2023-04-01T16:20:25.260Z,958.7938
2023-04-01T16:21:26.780Z,958.8100
2023-04-01T16:22:28.322Z,958.8369
2023-04-01T16:23:29.841Z,958.8746
2023-04-01T16:24:31.383Z,958.8408
2023-04-01T16:25:33.056Z,958.8416
2023-04-01T16:26:34.451Z,958.8608
2023-04-01T16:27:36.058Z,958.8762
2023-04-01T16:28:37.622Z,958.8723
2023-04-01T16:29:39.130Z,958.8877
2023-04-01T16:30:40.657Z,958.8985
2023-04-01T16:31:42.103Z,958.8839
2023-04-01T16:32:43.868Z,958.8631
2023-04-01T16:33:45.140Z,958.8892
2023-04-01T16:34:46.682Z,958.8954
2023-04-01T16:35:48.337Z,958.8800
2023-04-01T16:36:49.925Z,958.8854
2023-04-01T16:37:51.287Z,958.8947
2023-04-01T16:38:53.013Z,958.8708
2023-04-01T16:39:54.321Z,958.8785
2023-04-01T16:40:55.858Z,958.8777
2023-04-01T16:41:57.390Z,958.8915
2023-04-01T16:42:58.911Z,958.9223
2023-04-01T16:44:00.434Z,958.9654
2023-04-01T16:45:01.970Z,958.9600
2023-04-01T16:46:03.537Z,958.9669
2023-04-01T16:47:05.073Z,958.9477
2023-04-01T16:48:06.686Z,958.9708
2023-04-01T16:49:08.162Z,958.9708
2023-04-01T16:50:09.596Z,958.9815
2023-04-01T16:51:11.183Z,958.9554
2023-04-01T16:52:12.859Z,958.9900
2023-04-01T16:53:14.361Z,959.0331
2023-04-01T16:54:15.708Z,958.9954
2023-04-01T16:55:17.254Z,959.0585
2023-04-01T16:56:18.784Z,959.0408
2023-04-01T16:57:20.385Z,959.0554
2023-04-01T16:58:21.906Z,959.0562
2023-04-01T16:59:23.596Z,959.1339
2023-04-01T17:00:25.703Z,959.1423
2023-04-01T17:01:28.760Z,959.0984
2023-04-01T17:02:28.017Z,959.1608
2023-04-01T17:03:29.474Z,959.1546
2023-04-01T17:04:31.061Z,959.1731
2023-04-01T17:05:32.534Z,959.2077
2023-04-01T17:06:34.053Z,959.2585
2023-04-01T17:07:35.608Z,959.2708
2023-04-01T17:08:37.152Z,959.2900
2023-04-01T17:09:38.649Z,959.2946
2023-04-01T17:10:40.176Z,959.3369
2023-04-01T17:11:41.795Z,959.3208
2023-04-01T17:12:43.407Z,959.3484
2023-04-01T17:13:44.884Z,959.3323
2023-04-01T17:14:46.670Z,959.3031
2023-04-01T17:15:48.063Z,959.2662
2023-04-01T17:16:49.342Z,959.2615
2023-04-01T17:17:50.956Z,959.2300
2023-04-01T17:18:52.386Z,959.1900
2023-04-01T17:19:53.930Z,959.2139
2023-04-01T17:20:55.492Z,959.2246
2023-04-01T17:21:57.002Z,959.2269
2023-04-01T17:22:58.608Z,959.2923
2023-04-01T17:24:00.063Z,959.3008
2023-04-01T17:25:01.564Z,959.3339
2023-04-01T17:26:03.119Z,959.3192
2023-04-01T17:27:04.657Z,959.3062
2023-04-01T17:28:06.158Z,959.3270
2023-04-01T17:29:07.728Z,959.3323
2023-04-01T17:30:09.207Z,959.3315
2023-04-01T17:31:10.853Z,959.3585
2023-04-01T17:32:12.262Z,959.3846
2023-04-01T17:33:13.826Z,959.3269
2023-04-01T17:34:15.344Z,959.3054
2023-04-01T17:35:16.896Z,959.3431
2023-04-01T17:36:18.381Z,959.3300
2023-04-01T17:37:19.981Z,959.3715
2023-04-01T17:38:21.463Z,959.4115
2023-04-01T17:39:22.954Z,959.4054
2023-04-01T17:40:24.658Z,959.4000
2023-04-01T17:41:26.033Z,959.4230
2023-04-01T17:42:27.533Z,959.4254
2023-04-01T17:43:29.084Z,959.4161
2023-04-01T17:44:30.690Z,959.4562
2023-04-01T17:45:32.231Z,959.4661
2023-04-01T17:46:33.733Z,959.4623
2023-04-01T17:47:35.204Z,959.4293
2023-04-01T17:48:36.784Z,959.4153
2023-04-01T17:49:38.278Z,959.4677
2023-04-01T17:50:39.791Z,959.4800
2023-04-01T17:51:41.462Z,959.5070
2023-04-01T17:52:42.803Z,959.5239
2023-04-01T17:53:44.349Z,959.5361
2023-04-01T17:54:45.873Z,959.5446
2023-04-01T17:55:47.430Z,959.5339
2023-04-01T17:56:48.998Z,959.5408
2023-04-01T17:57:50.450Z,959.4969
2023-04-01T17:58:52.018Z,959.5000
2023-04-01T17:59:53.548Z,959.4954
2023-04-01T18:00:55.028Z,959.4753
2023-04-01T18:01:56.593Z,959.5123
2023-04-01T18:02:58.131Z,959.5615
2023-04-01T18:04:00.150Z,959.4969
2023-04-01T18:05:01.166Z,959.4662
2023-04-01T18:06:02.723Z,959.4515
2023-04-01T18:07:04.204Z,959.4684
2023-04-01T18:08:05.703Z,959.4700
2023-04-01T18:09:07.254Z,959.4492
2023-04-01T18:10:08.825Z,959.4930
2023-04-01T18:11:10.305Z,959.4531
2023-04-01T18:12:11.804Z,959.4200
2023-04-01T18:13:13.341Z,959.4584
2023-04-01T18:14:14.943Z,959.4446
2023-04-01T18:15:16.421Z,959.4469
2023-04-01T18:16:18.134Z,959.4885
2023-04-01T18:17:19.515Z,959.4869
2023-04-01T18:18:20.984Z,959.4900
2023-04-01T18:19:22.527Z,959.5070
2023-04-01T18:20:24.028Z,959.5092
2023-04-01T18:21:25.582Z,959.5000
2023-04-01T18:22:27.092Z,959.5070
2023-04-01T18:23:28.776Z,959.4854
2023-04-01T18:24:30.162Z,959.4854
2023-04-01T18:25:31.664Z,959.5569
2023-04-01T18:26:33.237Z,959.5231
2023-04-01T18:27:34.765Z,959.5416
2023-04-01T18:28:36.235Z,959.5515
2023-04-01T18:29:37.856Z,959.5992
2023-04-01T18:30:39.321Z,959.5908
2023-04-01T18:31:40.899Z,959.5923
2023-04-01T18:32:42.497Z,959.6292
2023-04-01T18:33:43.958Z,959.6277
2023-04-01T18:34:45.440Z,959.6862
2023-04-01T18:35:47.051Z,959.7131
2023-04-01T18:36:49.437Z,959.6877
